sensor_id;sensor_type;location;lat;lon;timestamp;pressure;altitude;pressure_sealevel;temperature;humidity
46394;BME280;32099;53.588;10.176;2024-03-06T00:02:08;101735.75;;;5.15;83.85
46394;BME280;32099;53.588;10.176;2024-03-06T00:04:34;101739.34;;;5.16;84.21
46394;BME280;32099;53.588;10.176;2024-03-06T00:07:00;101742.91;;;5.16;84.31
46394;BME280;32099;53.588;10.176;2024-03-06T00:09:26;101744.00;;;5.14;83.82
46394;BME280;32099;53.588;10.176;2024-03-06T00:11:54;101748.44;;;5.15;83.52
46394;BME280;32099;53.588;10.176;2024-03-06T00:14:20;101756.41;;;5.16;84.04
46394;BME280;32099;53.588;10.176;2024-03-06T00:16:46;101746.94;;;5.10;83.97
46394;BME280;32099;53.588;10.176;2024-03-06T00:19:12;101745.38;;;5.08;83.98
46394;BME280;32099;53.588;10.176;2024-03-06T00:21:38;101753.34;;;5.09;84.54
46394;BME280;32099;53.588;10.176;2024-03-06T00:24:04;101755.94;;;5.11;84.07
46394;BME280;32099;53.588;10.176;2024-03-06T00:26:30;101751.13;;;5.15;83.81
46394;BME280;32099;53.588;10.176;2024-03-06T00:28:58;101756.66;;;5.13;84.34
46394;BME280;32099;53.588;10.176;2024-03-06T00:31:24;101759.50;;;5.12;84.13
46394;BME280;32099;53.588;10.176;2024-03-06T00:33:50;101758.13;;;5.06;84.21
46394;BME280;32099;53.588;10.176;2024-03-06T00:36:16;101755.94;;;5.00;83.79
46394;BME280;32099;53.588;10.176;2024-03-06T00:38:42;101760.34;;;5.01;83.93
46394;BME280;32099;53.588;10.176;2024-03-06T00:41:08;101757.53;;;5.02;84.68
46394;BME280;32099;53.588;10.176;2024-03-06T00:43:33;101767.22;;;5.05;84.71
46394;BME280;32099;53.588;10.176;2024-03-06T00:46:02;101770.53;;;5.08;84.19
46394;BME280;32099;53.588;10.176;2024-03-06T00:48:28;101764.28;;;5.08;84.40
46394;BME280;32099;53.588;10.176;2024-03-06T00:50:53;101773.00;;;5.12;84.13
46394;BME280;32099;53.588;10.176;2024-03-06T00:53:19;101776.31;;;5.15;84.11
46394;BME280;32099;53.588;10.176;2024-03-06T00:55:45;101775.72;;;5.12;84.55
46394;BME280;32099;53.588;10.176;2024-03-06T00:58:11;101788.63;;;5.08;83.62
46394;BME280;32099;53.588;10.176;2024-03-06T01:00:37;101779.91;;;5.04;84.06
46394;BME280;32099;53.588;10.176;2024-03-06T01:03:05;101783.59;;;5.03;83.72
46394;BME280;32099;53.588;10.176;2024-03-06T01:05:31;101784.66;;;5.01;84.69
46394;BME280;32099;53.588;10.176;2024-03-06T01:07:57;101788.47;;;4.98;84.96
46394;BME280;32099;53.588;10.176;2024-03-06T01:10:23;101788.25;;;5.01;85.04
46394;BME280;32099;53.588;10.176;2024-03-06T01:12:48;101795.00;;;5.07;85.08
46394;BME280;32099;53.588;10.176;2024-03-06T01:15:14;101792.53;;;5.04;84.78
46394;BME280;32099;53.588;10.176;2024-03-06T01:17:40;101794.03;;;5.08;84.06
46394;BME280;32099;53.588;10.176;2024-03-06T01:20:09;101791.56;;;5.05;84.45
46394;BME280;32099;53.588;10.176;2024-03-06T01:22:35;101797.94;;;5.04;84.96
46394;BME280;32099;53.588;10.176;2024-03-06T01:25:01;101799.81;;;5.03;84.22
46394;BME280;32099;53.588;10.176;2024-03-06T01:27:27;101804.84;;;5.08;84.87
46394;BME280;32099;53.588;10.176;2024-03-06T01:29:53;101805.47;;;5.12;84.52
46394;BME280;32099;53.588;10.176;2024-03-06T01:32:18;101803.38;;;5.15;83.95
46394;BME280;32099;53.588;10.176;2024-03-06T01:34:44;101808.03;;;5.13;84.43
46394;BME280;32099;53.588;10.176;2024-03-06T01:37:12;101805.47;;;5.12;84.20
46394;BME280;32099;53.588;10.176;2024-03-06T01:39:38;101809.13;;;5.10;84.14
46394;BME280;32099;53.588;10.176;2024-03-06T01:42:04;101803.97;;;5.07;84.77
46394;BME280;32099;53.588;10.176;2024-03-06T01:44:29;101806.81;;;5.06;84.36
46394;BME280;32099;53.588;10.176;2024-03-06T01:46:55;101810.63;;;5.03;84.44
46394;BME280;32099;53.588;10.176;2024-03-06T01:49:21;101810.50;;;5.05;84.74
46394;BME280;32099;53.588;10.176;2024-03-06T01:51:48;101817.47;;;5.07;84.13
46394;BME280;32099;53.588;10.176;2024-03-06T01:54:20;101814.16;;;5.04;84.97
46394;BME280;32099;53.588;10.176;2024-03-06T01:56:47;101823.16;;;5.04;84.73
46394;BME280;32099;53.588;10.176;2024-03-06T01:59:15;101822.19;;;5.05;84.16
46394;BME280;32099;53.588;10.176;2024-03-06T02:01:41;101817.75;;;5.04;85.00
46394;BME280;32099;53.588;10.176;2024-03-06T02:04:08;101830.28;;;5.05;84.64
46394;BME280;32099;53.588;10.176;2024-03-06T02:06:34;101821.31;;;5.05;84.24
46394;BME280;32099;53.588;10.176;2024-03-06T02:09:00;101824.13;;;5.03;84.81
46394;BME280;32099;53.588;10.176;2024-03-06T02:11:29;101817.00;;;5.02;83.97
46394;BME280;32099;53.588;10.176;2024-03-06T02:13:55;101827.44;;;4.96;84.39
46394;BME280;32099;53.588;10.176;2024-03-06T02:16:21;101825.19;;;4.89;84.91
46394;BME280;32099;53.588;10.176;2024-03-06T02:18:52;101818.09;;;4.88;84.22
46394;BME280;32099;53.588;10.176;2024-03-06T02:21:21;101823.59;;;4.87;84.87
46394;BME280;32099;53.588;10.176;2024-03-06T02:23:48;101824.72;;;4.84;85.19
46394;BME280;32099;53.588;10.176;2024-03-06T02:26:13;101821.13;;;4.84;84.74
46394;BME280;32099;53.588;10.176;2024-03-06T02:28:45;101821.78;;;4.87;84.53
46394;BME280;32099;53.588;10.176;2024-03-06T02:31:12;101824.13;;;4.92;83.90
46394;BME280;32099;53.588;10.176;2024-03-06T02:33:37;101831.59;;;4.88;83.54
46394;BME280;32099;53.588;10.176;2024-03-06T02:36:03;101831.31;;;4.80;84.33
46394;BME280;32099;53.588;10.176;2024-03-06T02:38:35;101827.88;;;4.78;84.43
46394;BME280;32099;53.588;10.176;2024-03-06T02:41:00;101830.69;;;4.76;83.61
46394;BME280;32099;53.588;10.176;2024-03-06T02:43:26;101835.47;;;4.73;83.52
46394;BME280;32099;53.588;10.176;2024-03-06T02:45:52;101838.41;;;4.70;84.68
46394;BME280;32099;53.588;10.176;2024-03-06T02:48:18;101837.44;;;4.71;84.09
46394;BME280;32099;53.588;10.176;2024-03-06T02:50:44;101840.28;;;4.69;84.34
46394;BME280;32099;53.588;10.176;2024-03-06T02:53:09;101840.50;;;4.66;84.52
46394;BME280;32099;53.588;10.176;2024-03-06T02:55:38;101841.13;;;4.70;84.50
46394;BME280;32099;53.588;10.176;2024-03-06T02:58:04;101841.75;;;4.73;84.48
46394;BME280;32099;53.588;10.176;2024-03-06T03:00:30;101839.03;;;4.73;84.29
46394;BME280;32099;53.588;10.176;2024-03-06T03:02:56;101834.00;;;4.69;84.22
46394;BME280;32099;53.588;10.176;2024-03-06T03:05:21;101841.03;;;4.71;84.36
46394;BME280;32099;53.588;10.176;2024-03-06T03:07:47;101831.81;;;4.74;83.40
46394;BME280;32099;53.588;10.176;2024-03-06T03:10:13;101838.19;;;4.73;83.84
46394;BME280;32099;53.588;10.176;2024-03-06T03:12:41;101838.41;;;4.70;84.05
46394;BME280;32099;53.588;10.176;2024-03-06T03:15:08;101844.78;;;4.69;84.68
46394;BME280;32099;53.588;10.176;2024-03-06T03:17:34;101843.47;;;4.74;83.67
46394;BME280;32099;53.588;10.176;2024-03-06T03:20:00;101838.59;;;4.79;83.54
46394;BME280;32099;53.588;10.176;2024-03-06T03:22:26;101841.91;;;4.83;83.03
46394;BME280;32099;53.588;10.176;2024-03-06T03:24:52;101778.28;;;4.43;83.35
46394;BME280;32099;53.588;10.176;2024-03-06T03:27:18;101842.88;;;4.82;83.66
46394;BME280;32099;53.588;10.176;2024-03-06T03:29:46;101845.59;;;4.82;83.17
46394;BME280;32099;53.588;10.176;2024-03-06T03:32:12;101849.16;;;4.83;82.79
46394;BME280;32099;53.588;10.176;2024-03-06T03:34:38;101840.66;;;4.76;83.33
46394;BME280;32099;53.588;10.176;2024-03-06T03:37:04;101849.84;;;4.73;83.46
46394;BME280;32099;53.588;10.176;2024-03-06T03:39:29;101855.72;;;4.67;83.23
46394;BME280;32099;53.588;10.176;2024-03-06T03:41:55;101848.84;;;4.63;83.57
46394;BME280;32099;53.588;10.176;2024-03-06T03:44:21;101850.16;;;4.57;83.66
46394;BME280;32099;53.588;10.176;2024-03-06T03:46:52;101793.66;;;4.19;82.94
46394;BME280;32099;53.588;10.176;2024-03-06T03:49:18;101860.34;;;4.54;83.31
46394;BME280;32099;53.588;10.176;2024-03-06T03:51:43;101862.06;;;4.55;83.13
46394;BME280;32099;53.588;10.176;2024-03-06T03:54:09;101866.94;;;4.50;83.33
46394;BME280;32099;53.588;10.176;2024-03-06T03:56:35;101864.25;;;4.50;83.73
46394;BME280;32099;53.588;10.176;2024-03-06T03:59:01;101865.00;;;4.52;83.24
46394;BME280;32099;53.588;10.176;2024-03-06T04:01:27;101867.94;;;4.48;83.58
46394;BME280;32099;53.588;10.176;2024-03-06T04:03:58;101867.41;;;4.43;82.70
46394;BME280;32099;53.588;10.176;2024-03-06T04:06:24;101866.03;;;4.38;82.56
46394;BME280;32099;53.588;10.176;2024-03-06T04:08:50;101865.50;;;4.32;82.76
46394;BME280;32099;53.588;10.176;2024-03-06T04:11:16;101790.88;;;3.83;82.77
46394;BME280;32099;53.588;10.176;2024-03-06T04:13:42;101864.59;;;4.21;82.61
46394;BME280;32099;53.588;10.176;2024-03-06T04:16:07;101867.53;;;4.17;82.83
46394;BME280;32099;53.588;10.176;2024-03-06T04:18:33;101870.44;;;4.14;83.37
46394;BME280;32099;53.588;10.176;2024-03-06T04:21:04;101872.41;;;4.12;82.96
46394;BME280;32099;53.588;10.176;2024-03-06T04:23:30;101873.59;;;4.08;82.79
46394;BME280;32099;53.588;10.176;2024-03-06T04:25:56;101879.34;;;4.04;82.73
46394;BME280;32099;53.588;10.176;2024-03-06T04:28:22;101873.06;;;4.03;82.86
46394;BME280;32099;53.588;10.176;2024-03-06T04:30:48;101875.78;;;4.03;82.64
46394;BME280;32099;53.588;10.176;2024-03-06T04:33:13;101883.00;;;4.03;82.14
46394;BME280;32099;53.588;10.176;2024-03-06T04:35:39;101872.44;;;3.99;83.12
46394;BME280;32099;53.588;10.176;2024-03-06T04:38:07;101879.06;;;3.95;82.70
46394;BME280;32099;53.588;10.176;2024-03-06T04:40:33;101885.41;;;3.94;82.51
46394;BME280;32099;53.588;10.176;2024-03-06T04:42:59;101891.25;;;3.88;82.81
46394;BME280;32099;53.588;10.176;2024-03-06T04:45:25;101878.00;;;3.85;82.67
46394;BME280;32099;53.588;10.176;2024-03-06T04:47:51;101884.25;;;3.85;82.89
46394;BME280;32099;53.588;10.176;2024-03-06T04:50:17;101795.63;;;3.29;82.42
46394;BME280;32099;53.588;10.176;2024-03-06T04:52:43;101883.94;;;3.77;82.73
46394;BME280;32099;53.588;10.176;2024-03-06T04:55:11;101889.34;;;3.77;82.44
46394;BME280;32099;53.588;10.176;2024-03-06T04:57:39;101887.63;;;3.76;82.70
46394;BME280;32099;53.588;10.176;2024-03-06T05:00:05;101884.03;;;3.76;82.52
46394;BME280;32099;53.588;10.176;2024-03-06T05:02:32;101897.53;;;3.76;82.40
46394;BME280;32099;53.588;10.176;2024-03-06T05:04:58;101903.25;;;3.71;82.45
46394;BME280;32099;53.588;10.176;2024-03-06T05:07:24;101896.47;;;3.65;82.57
46394;BME280;32099;53.588;10.176;2024-03-06T05:09:49;101898.41;;;3.63;83.11
46394;BME280;32099;53.588;10.176;2024-03-06T05:12:18;101910.50;;;3.58;82.56
46394;BME280;32099;53.588;10.176;2024-03-06T05:14:44;101912.56;;;3.54;82.52
46394;BME280;32099;53.588;10.176;2024-03-06T05:17:10;101919.16;;;3.50;82.39
46394;BME280;32099;53.588;10.176;2024-03-06T05:19:36;101920.44;;;3.44;82.83
46394;BME280;32099;53.588;10.176;2024-03-06T05:22:01;101917.06;;;3.40;83.77
46394;BME280;32099;53.588;10.176;2024-03-06T05:24:27;101927.00;;;3.40;83.09
46394;BME280;32099;53.588;10.176;2024-03-06T05:26:53;101927.13;;;3.38;83.48
46394;BME280;32099;53.588;10.176;2024-03-06T05:29:21;101922.78;;;3.36;83.23
46394;BME280;32099;53.588;10.176;2024-03-06T05:31:47;101928.31;;;3.34;82.99
46394;BME280;32099;53.588;10.176;2024-03-06T05:34:13;101870.13;;;2.91;82.56
46394;BME280;32099;53.588;10.176;2024-03-06T05:36:39;101942.31;;;3.27;83.42
46394;BME280;32099;53.588;10.176;2024-03-06T05:39:04;101930.13;;;3.21;82.75
46394;BME280;32099;53.588;10.176;2024-03-06T05:41:30;101945.00;;;3.14;83.26
46394;BME280;32099;53.588;10.176;2024-03-06T05:43:56;101948.97;;;3.08;83.09
46394;BME280;32099;53.588;10.176;2024-03-06T05:46:24;101958.13;;;3.05;83.65
46394;BME280;32099;53.588;10.176;2024-03-06T05:48:50;101952.97;;;3.02;83.84
46394;BME280;32099;53.588;10.176;2024-03-06T05:51:15;101962.31;;;2.97;84.20
46394;BME280;32099;53.588;10.176;2024-03-06T05:53:41;101966.94;;;2.95;83.75
46394;BME280;32099;53.588;10.176;2024-03-06T05:56:07;101973.41;;;2.92;83.18
46394;BME280;32099;53.588;10.176;2024-03-06T05:58:33;101975.34;;;2.90;83.03
46394;BME280;32099;53.588;10.176;2024-03-06T06:00:59;101978.13;;;2.88;83.96
46394;BME280;32099;53.588;10.176;2024-03-06T06:03:28;101970.34;;;2.84;83.11
46394;BME280;32099;53.588;10.176;2024-03-06T06:05:53;101988.47;;;2.82;83.10
46394;BME280;32099;53.588;10.176;2024-03-06T06:08:19;101989.63;;;2.77;83.24
46394;BME280;32099;53.588;10.176;2024-03-06T06:10:44;101989.94;;;2.73;83.07
46394;BME280;32099;53.588;10.176;2024-03-06T06:13:10;101999.09;;;2.70;83.27
46394;BME280;32099;53.588;10.176;2024-03-06T06:15:36;101997.44;;;2.68;83.20
46394;BME280;32099;53.588;10.176;2024-03-06T06:18:02;102001.09;;;2.67;83.47
46394;BME280;32099;53.588;10.176;2024-03-06T06:20:30;102005.63;;;2.66;83.59
46394;BME280;32099;53.588;10.176;2024-03-06T06:22:56;102004.66;;;2.67;83.91
46394;BME280;32099;53.588;10.176;2024-03-06T06:25:22;102006.59;;;2.65;83.88
46394;BME280;32099;53.588;10.176;2024-03-06T06:27:48;102011.22;;;2.63;83.67
46394;BME280;32099;53.588;10.176;2024-03-06T06:30:13;102019.59;;;2.58;84.33
46394;BME280;32099;53.588;10.176;2024-03-06T06:32:39;102021.69;;;2.53;83.93
46394;BME280;32099;53.588;10.176;2024-03-06T06:35:06;102027.09;;;2.53;83.98
46394;BME280;32099;53.588;10.176;2024-03-06T06:37:35;102030.66;;;2.54;84.32
46394;BME280;32099;53.588;10.176;2024-03-06T06:40:01;102027.69;;;2.58;85.48
46394;BME280;32099;53.588;10.176;2024-03-06T06:42:27;102039.22;;;2.60;85.36
46394;BME280;32099;53.588;10.176;2024-03-06T06:44:53;102038.16;;;2.63;84.84
46394;BME280;32099;53.588;10.176;2024-03-06T06:47:18;102041.72;;;2.64;85.14
46394;BME280;32099;53.588;10.176;2024-03-06T06:49:44;102050.53;;;2.66;85.39
46394;BME280;32099;53.588;10.176;2024-03-06T06:52:10;102053.03;;;2.69;85.62
46394;BME280;32099;53.588;10.176;2024-03-06T06:54:38;102053.81;;;2.71;85.90
46394;BME280;32099;53.588;10.176;2024-03-06T06:57:04;102064.28;;;2.75;85.84
46394;BME280;32099;53.588;10.176;2024-03-06T06:59:29;102000.75;;;2.44;86.10
46394;BME280;32099;53.588;10.176;2024-03-06T07:01:55;102062.84;;;2.84;86.42
46394;BME280;32099;53.588;10.176;2024-03-06T07:04:21;102069.00;;;2.86;85.94
46394;BME280;32099;53.588;10.176;2024-03-06T07:06:46;102066.06;;;2.89;86.37
46394;BME280;32099;53.588;10.176;2024-03-06T07:09:12;102067.72;;;2.92;86.76
46394;BME280;32099;53.588;10.176;2024-03-06T07:11:41;102068.94;;;3.01;86.24
46394;BME280;32099;53.588;10.176;2024-03-06T07:14:06;102073.81;;;3.08;86.00
46394;BME280;32099;53.588;10.176;2024-03-06T07:16:32;102072.53;;;3.14;85.49
46394;BME280;32099;53.588;10.176;2024-03-06T07:18:58;102085.72;;;3.19;85.94
46394;BME280;32099;53.588;10.176;2024-03-06T07:21:23;102082.63;;;3.25;85.46
46394;BME280;32099;53.588;10.176;2024-03-06T07:23:49;102085.88;;;3.30;85.59
46394;BME280;32099;53.588;10.176;2024-03-06T07:26:14;102086.31;;;3.37;85.53
46394;BME280;32099;53.588;10.176;2024-03-06T07:28:43;102084.97;;;3.44;85.43
46394;BME280;32099;53.588;10.176;2024-03-06T07:31:08;102092.75;;;3.49;85.81
46394;BME280;32099;53.588;10.176;2024-03-06T07:33:34;102090.56;;;3.54;85.77
46394;BME280;32099;53.588;10.176;2024-03-06T07:36:00;102098.16;;;3.62;85.71
46394;BME280;32099;53.588;10.176;2024-03-06T07:38:25;102103.78;;;3.72;85.22
46394;BME280;32099;53.588;10.176;2024-03-06T07:40:51;102108.44;;;3.82;84.83
46394;BME280;32099;53.588;10.176;2024-03-06T07:43:17;102099.63;;;3.93;84.85
46394;BME280;32099;53.588;10.176;2024-03-06T07:45:45;102102.53;;;4.03;84.26
46394;BME280;32099;53.588;10.176;2024-03-06T07:48:11;102116.47;;;4.10;84.34
46394;BME280;32099;53.588;10.176;2024-03-06T07:50:37;102110.66;;;4.16;83.91
46394;BME280;32099;53.588;10.176;2024-03-06T07:53:03;102113.66;;;4.24;84.61
46394;BME280;32099;53.588;10.176;2024-03-06T07:55:29;102114.84;;;4.33;84.04
46394;BME280;32099;53.588;10.176;2024-03-06T07:57:54;102115.28;;;4.40;84.03
46394;BME280;32099;53.588;10.176;2024-03-06T08:00:20;102062.03;;;4.16;83.25
46394;BME280;32099;53.588;10.176;2024-03-06T08:02:49;102114.50;;;4.63;82.25
46394;BME280;32099;53.588;10.176;2024-03-06T08:05:15;102119.25;;;4.73;81.76
46394;BME280;32099;53.588;10.176;2024-03-06T08:07:41;102116.84;;;4.81;81.82
46394;BME280;32099;53.588;10.176;2024-03-06T08:10:08;102109.69;;;4.93;81.59
46394;BME280;32099;53.588;10.176;2024-03-06T08:12:34;102117.97;;;5.03;80.77
46394;BME280;32099;53.588;10.176;2024-03-06T08:14:59;102056.97;;;4.74;80.18
46394;BME280;32099;53.588;10.176;2024-03-06T08:17:25;102127.19;;;5.24;80.39
46394;BME280;32099;53.588;10.176;2024-03-06T08:19:53;102126.06;;;5.40;79.56
46394;BME280;32099;53.588;10.176;2024-03-06T08:22:19;102134.09;;;5.53;79.69
46394;BME280;32099;53.588;10.176;2024-03-06T08:24:46;102131.44;;;5.64;78.36
46394;BME280;32099;53.588;10.176;2024-03-06T08:27:12;102125.84;;;5.79;78.63
46394;BME280;32099;53.588;10.176;2024-03-06T08:29:37;102134.41;;;5.97;77.86
46394;BME280;32099;53.588;10.176;2024-03-06T08:32:03;102137.69;;;6.13;77.81
46394;BME280;32099;53.588;10.176;2024-03-06T08:34:29;102133.88;;;6.27;76.84
46394;BME280;32099;53.588;10.176;2024-03-06T08:36:58;102150.66;;;6.44;76.02
46394;BME280;32099;53.588;10.176;2024-03-06T08:39:23;102150.03;;;6.52;76.17
46394;BME280;32099;53.588;10.176;2024-03-06T08:41:49;102155.72;;;6.60;74.52
46394;BME280;32099;53.588;10.176;2024-03-06T08:44:15;102155.72;;;6.60;74.52
46394;BME280;32099;53.588;10.176;2024-03-06T08:46:40;102166.66;;;6.58;73.92
46394;BME280;32099;53.588;10.176;2024-03-06T08:49:06;102164.56;;;6.62;75.79
46394;BME280;32099;53.588;10.176;2024-03-06T08:51:32;102162.97;;;6.82;75.13
46394;BME280;32099;53.588;10.176;2024-03-06T08:54:00;102159.16;;;6.96;73.39
46394;BME280;32099;53.588;10.176;2024-03-06T08:56:26;102158.66;;;7.14;74.83
46394;BME280;32099;53.588;10.176;2024-03-06T08:58:51;102166.97;;;7.33;72.78
46394;BME280;32099;53.588;10.176;2024-03-06T09:01:17;102155.56;;;7.18;73.07
46394;BME280;32099;53.588;10.176;2024-03-06T09:03:42;102167.00;;;7.22;73.36
46394;BME280;32099;53.588;10.176;2024-03-06T09:06:08;102163.69;;;7.18;71.50
46394;BME280;32099;53.588;10.176;2024-03-06T09:08:34;102164.44;;;7.20;73.40
46394;BME280;32099;53.588;10.176;2024-03-06T09:11:02;102171.81;;;7.30;73.22
46394;BME280;32099;53.588;10.176;2024-03-06T09:13:28;102178.41;;;7.04;71.71
46394;BME280;32099;53.588;10.176;2024-03-06T09:15:54;102183.94;;;6.91;72.10
46394;BME280;32099;53.588;10.176;2024-03-06T09:21:21;102122.31;;;6.37;73.81
46394;BME280;32099;53.588;10.176;2024-03-06T09:23:47;102182.72;;;6.73;71.32
46394;BME280;32099;53.588;10.176;2024-03-06T09:26:16;102192.44;;;6.75;73.49
46394;BME280;32099;53.588;10.176;2024-03-06T09:28:41;102190.72;;;6.86;73.26
46394;BME280;32099;53.588;10.176;2024-03-06T09:31:07;102192.69;;;7.06;72.40
46394;BME280;32099;53.588;10.176;2024-03-06T09:33:33;102194.78;;;7.03;68.95
46394;BME280;32099;53.588;10.176;2024-03-06T09:35:59;102199.13;;;6.83;69.23
46394;BME280;32099;53.588;10.176;2024-03-06T09:38:26;102200.94;;;6.82;72.78
46394;BME280;32099;53.588;10.176;2024-03-06T09:40:53;102199.72;;;6.98;69.19
46394;BME280;32099;53.588;10.176;2024-03-06T09:43:24;102196.63;;;6.91;70.90
46394;BME280;32099;53.588;10.176;2024-03-06T09:45:50;102200.94;;;6.93;71.68
46394;BME280;32099;53.588;10.176;2024-03-06T09:48:16;102202.78;;;7.16;72.57
46394;BME280;32099;53.588;10.176;2024-03-06T09:50:45;102191.91;;;7.38;68.47
46394;BME280;32099;53.588;10.176;2024-03-06T09:53:14;102195.66;;;7.70;70.75
46394;BME280;32099;53.588;10.176;2024-03-06T09:55:40;102206.72;;;8.11;69.35
46394;BME280;32099;53.588;10.176;2024-03-06T09:58:07;102212.03;;;8.33;69.18
46394;BME280;32099;53.588;10.176;2024-03-06T10:00:35;102211.16;;;8.33;69.40
46394;BME280;32099;53.588;10.176;2024-03-06T10:03:02;102206.84;;;8.09;68.20
46394;BME280;32099;53.588;10.176;2024-03-06T10:05:29;102208.16;;;7.94;68.82
46394;BME280;32099;53.588;10.176;2024-03-06T10:07:54;102214.47;;;7.83;68.46
46394;BME280;32099;53.588;10.176;2024-03-06T10:10:20;102211.66;;;7.73;69.54
46394;BME280;32099;53.588;10.176;2024-03-06T10:12:46;102224.78;;;7.68;69.91
46394;BME280;32099;53.588;10.176;2024-03-06T10:15:11;102221.94;;;7.69;69.56
46394;BME280;32099;53.588;10.176;2024-03-06T10:17:40;102173.75;;;7.39;68.83
46394;BME280;32099;53.588;10.176;2024-03-06T10:20:16;102223.75;;;7.80;69.09
46394;BME280;32099;53.588;10.176;2024-03-06T10:22:42;102219.53;;;7.87;69.46
46394;BME280;32099;53.588;10.176;2024-03-06T10:25:08;102226.28;;;7.93;68.92
46394;BME280;32099;53.588;10.176;2024-03-06T10:27:34;102230.28;;;8.10;68.60
46394;BME280;32099;53.588;10.176;2024-03-06T10:30:00;102231.03;;;8.12;68.02
46394;BME280;32099;53.588;10.176;2024-03-06T10:32:27;102231.97;;;8.23;68.84
46394;BME280;32099;53.588;10.176;2024-03-06T10:34:55;102234.28;;;8.27;67.57
46394;BME280;32099;53.588;10.176;2024-03-06T10:37:21;102230.84;;;8.25;67.25
46394;BME280;32099;53.588;10.176;2024-03-06T10:39:49;102232.75;;;8.13;63.25
46394;BME280;32099;53.588;10.176;2024-03-06T10:42:17;102238.94;;;7.83;67.52
46394;BME280;32099;53.588;10.176;2024-03-06T10:44:45;102235.59;;;7.79;69.36
46394;BME280;32099;53.588;10.176;2024-03-06T10:47:17;102230.53;;;7.86;69.26
46394;BME280;32099;53.588;10.176;2024-03-06T10:49:44;102230.13;;;7.91;68.69
46394;BME280;32099;53.588;10.176;2024-03-06T10:52:15;102229.00;;;7.93;68.86
46394;BME280;32099;53.588;10.176;2024-03-06T10:54:44;102226.53;;;7.90;68.21
46394;BME280;32099;53.588;10.176;2024-03-06T10:57:13;102237.34;;;7.80;66.21
46394;BME280;32099;53.588;10.176;2024-03-06T10:59:41;102241.44;;;7.75;69.59
46394;BME280;32099;53.588;10.176;2024-03-06T11:02:09;102238.06;;;7.71;68.89
46394;BME280;32099;53.588;10.176;2024-03-06T11:04:36;102239.81;;;7.72;68.85
46394;BME280;32099;53.588;10.176;2024-03-06T11:07:06;102226.38;;;7.70;70.64
46394;BME280;32099;53.588;10.176;2024-03-06T11:09:57;102237.47;;;7.67;69.89
46394;BME280;32099;53.588;10.176;2024-03-06T11:12:34;102240.75;;;7.82;68.42
46394;BME280;32099;53.588;10.176;2024-03-06T11:15:08;102238.69;;;7.86;69.18
46394;BME280;32099;53.588;10.176;2024-03-06T11:17:36;102236.06;;;7.84;68.15
46394;BME280;32099;53.588;10.176;2024-03-06T11:20:13;102239.16;;;7.80;69.37
46394;BME280;32099;53.588;10.176;2024-03-06T11:28:25;102240.88;;;7.92;68.56
46394;BME280;32099;53.588;10.176;2024-03-06T11:30:54;102241.22;;;7.99;68.98
46394;BME280;32099;53.588;10.176;2024-03-06T11:33:21;102241.31;;;8.09;69.44
46394;BME280;32099;53.588;10.176;2024-03-06T11:38:43;102240.00;;;8.45;67.38
46394;BME280;32099;53.588;10.176;2024-03-06T11:41:12;102239.63;;;8.50;67.35
46394;BME280;32099;53.588;10.176;2024-03-06T11:43:42;102243.69;;;8.56;68.45
46394;BME280;32099;53.588;10.176;2024-03-06T11:46:08;102239.41;;;8.63;67.49
46394;BME280;32099;53.588;10.176;2024-03-06T11:48:34;102242.75;;;8.67;65.97
46394;BME280;32099;53.588;10.176;2024-03-06T11:51:00;102237.84;;;8.60;66.21
46394;BME280;32099;53.588;10.176;2024-03-06T11:53:26;102239.31;;;8.64;63.59
46394;BME280;32099;53.588;10.176;2024-03-06T11:55:56;102243.88;;;8.64;65.70
46394;BME280;32099;53.588;10.176;2024-03-06T11:58:22;102242.88;;;8.65;64.47
46394;BME280;32099;53.588;10.176;2024-03-06T12:00:48;102244.00;;;8.62;66.23
46394;BME280;32099;53.588;10.176;2024-03-06T12:03:13;102250.63;;;8.70;64.17
46394;BME280;32099;53.588;10.176;2024-03-06T12:05:39;102249.50;;;8.72;65.76
46394;BME280;32099;53.588;10.176;2024-03-06T12:08:06;102245.66;;;8.75;66.65
46394;BME280;32099;53.588;10.176;2024-03-06T12:10:32;102246.72;;;8.62;63.46
46394;BME280;32099;53.588;10.176;2024-03-06T12:13:05;102252.34;;;8.71;65.92
46394;BME280;32099;53.588;10.176;2024-03-06T12:15:30;102250.50;;;8.71;66.51
46394;BME280;32099;53.588;10.176;2024-03-06T12:17:56;102253.22;;;8.71;66.51
46394;BME280;32099;53.588;10.176;2024-03-06T12:20:23;102249.50;;;8.72;65.34
46394;BME280;32099;53.588;10.176;2024-03-06T12:22:50;102252.34;;;8.71;64.09
46394;BME280;32099;53.588;10.176;2024-03-06T12:25:20;102253.22;;;8.71;63.70
46394;BME280;32099;53.588;10.176;2024-03-06T12:27:46;102261.84;;;8.76;64.41
46394;BME280;32099;53.588;10.176;2024-03-06T12:30:15;102262.41;;;8.80;61.93
46394;BME280;32099;53.588;10.176;2024-03-06T12:32:41;102264.44;;;8.78;63.26
46394;BME280;32099;53.588;10.176;2024-03-06T12:35:07;102261.38;;;8.71;64.12
46394;BME280;32099;53.588;10.176;2024-03-06T12:37:33;102257.28;;;8.77;64.40
46394;BME280;32099;53.588;10.176;2024-03-06T12:40:00;102258.84;;;8.79;60.82
46394;BME280;32099;53.588;10.176;2024-03-06T12:42:26;102263.31;;;8.80;61.68
46394;BME280;32099;53.588;10.176;2024-03-06T12:44:51;102259.00;;;8.78;63.84
46394;BME280;32099;53.588;10.176;2024-03-06T12:47:20;102252.56;;;8.79;65.44
46394;BME280;32099;53.588;10.176;2024-03-06T12:49:45;102258.19;;;8.87;64.88
46394;BME280;32099;53.588;10.176;2024-03-06T12:52:11;102255.31;;;8.89;60.83
46394;BME280;32099;53.588;10.176;2024-03-06T12:54:37;102252.94;;;8.74;63.51
46394;BME280;32099;53.588;10.176;2024-03-06T12:57:03;102244.84;;;8.63;62.90
46394;BME280;32099;53.588;10.176;2024-03-06T12:59:28;102246.72;;;8.62;65.58